Time;durP1;ratioP1;P1;durP2;ratioP2;P2;SDS_P1;SDS_P2;PMS_P1;PMS_P2;Temp;Humidity;BMP_temperature;BMP_pressure;BME280_temperature;BME280_humidity;BME280_pressure;Samples;Min_cycle;Max_cycle;Signal;HPM_P1;HPM_P2
2023/01/13 00:01:23;;;;;;;19.20;4.43;;;9.40;99.90;;;;;;5036831;28;20041;-89
2023/01/13 00:03:49;;;;;;;17.47;3.93;;;9.40;99.90;;;;;;5018378;28;20088;-86
2023/01/13 00:06:21;;;;;;;22.13;4.10;;;9.40;99.90;;;;;;5036644;28;20095;-85
2023/01/13 00:08:50;;;;;;;21.63;4.77;;;9.30;99.90;;;;;;5031319;28;20056;-86
2023/01/13 00:11:17;;;;;;;20.63;4.43;;;9.30;99.90;;;;;;5008975;28;20045;-87
2023/01/13 00:13:43;;;;;;;19.53;5.10;;;9.30;99.90;;;;;;5017992;28;20049;-84
2023/01/13 00:16:14;;;;;;;19.97;5.00;;;9.20;99.90;;;;;;5022098;28;20110;-88
2023/01/13 00:18:40;;;;;;;29.07;5.50;;;9.20;99.90;;;;;;5026031;28;20049;-87
2023/01/13 00:21:22;;;;;;;21.47;4.70;;;9.10;99.90;;;;;;5016879;28;20481;-91
2023/01/13 00:23:48;;;;;;;24.75;6.05;;;9.10;99.90;;;;;;5052439;28;20052;-88
2023/01/13 00:26:16;;;;;;;23.83;5.47;;;9.00;99.90;;;;;;5035741;28;20037;-88
2023/01/13 00:28:42;;;;;;;25.30;5.67;;;9.00;99.90;;;;;;5019653;28;20033;-89
2023/01/13 00:31:18;;;;;;;30.00;5.27;;;9.00;99.90;;;;;;5028952;28;20416;-88
2023/01/13 00:33:44;;;;;;;26.53;5.33;;;8.90;99.90;;;;;;5033350;28;20048;-88
2023/01/13 00:36:12;;;;;;;25.70;5.10;;;8.80;99.90;;;;;;5035260;28;20042;-89
2023/01/13 00:38:41;;;;;;;20.90;5.70;;;8.90;99.90;;;;;;5029119;28;20071;-88
2023/01/13 00:41:12;;;;;;;32.83;6.03;;;8.80;99.90;;;;;;5028186;28;20037;-88
2023/01/13 00:43:38;;;;;;;27.20;5.80;;;8.80;99.90;;;;;;5035184;28;20762;-89
2023/01/13 00:46:07;;;;;;;23.43;6.10;;;8.80;99.90;;;;;;5019291;28;20037;-89
2023/01/13 00:48:33;;;;;;;25.70;6.90;;;8.70;99.90;;;;;;5035815;28;20084;-89
2023/01/13 00:51:20;;;;;;;29.90;6.63;;;8.70;99.90;;;;;;5018660;28;20500;-90
2023/01/13 00:53:49;;;;;;;42.67;7.07;;;8.70;99.90;;;;;;5030743;28;20049;-87
2023/01/13 00:56:23;;;;;;;33.13;6.77;;;8.70;99.90;;;;;;5033151;28;20777;-87
2023/01/13 00:58:50;;;;;;;30.37;8.17;;;8.60;99.90;;;;;;5034028;28;20049;-84
2023/01/13 01:01:21;;;;;;;26.90;6.30;;;8.60;99.90;;;;;;5045533;28;20053;-83
2023/01/13 01:03:48;;;;;;;26.83;6.90;;;8.50;99.90;;;;;;5021313;28;20043;-87
2023/01/13 01:06:17;;;;;;;32.00;7.13;;;8.50;99.90;;;;;;5037537;28;20068;-88
2023/01/13 01:08:43;;;;;;;24.37;6.63;;;8.50;99.90;;;;;;5037508;28;20053;-84
2023/01/13 01:11:16;;;;;;;28.40;6.20;;;8.50;99.90;;;;;;5036274;28;20049;-90
2023/01/13 01:13:42;;;;;;;32.23;6.60;;;8.40;99.90;;;;;;5036351;28;20047;-88
2023/01/13 01:16:11;;;;;;;25.90;6.80;;;8.40;99.90;;;;;;5039056;28;20458;-89
2023/01/13 01:18:39;;;;;;;25.60;5.70;;;8.40;99.90;;;;;;5048124;28;20045;-89
2023/01/13 01:21:07;;;;;;;27.80;6.47;;;8.40;99.90;;;;;;5031193;28;20381;-89
2023/01/13 01:23:34;;;;;;;34.30;7.07;;;8.30;99.90;;;;;;5037826;28;20467;-89
2023/01/13 01:26:09;;;;;;;34.40;6.80;;;8.30;99.90;;;;;;5024041;28;20045;-89
2023/01/13 01:28:35;;;;;;;30.57;6.63;;;8.30;99.90;;;;;;5023661;28;20037;-87
2023/01/13 01:31:14;;;;;;;28.93;6.27;;;8.30;99.90;;;;;;5026206;28;20095;-86
2023/01/13 01:33:41;;;;;;;28.50;6.40;;;8.30;99.90;;;;;;5039784;28;20045;-92
2023/01/13 01:36:08;;;;;;;26.53;6.73;;;8.30;99.90;;;;;;5040616;28;20182;-89
2023/01/13 01:38:33;;;;;;;21.43;5.10;;;8.30;99.90;;;;;;5031119;28;20072;-91
2023/01/13 01:41:00;;;;;;;31.13;5.97;;;8.30;99.90;;;;;;5030654;28;20110;-89
2023/01/13 01:43:58;;;;;;;26.50;5.90;;;8.30;99.90;;;;;;5039344;28;20063;-87
2023/01/13 01:46:25;;;;;;;28.27;5.43;;;8.30;99.90;;;;;;5039872;28;20037;-89
2023/01/13 01:48:52;;;;;;;24.07;5.20;;;8.30;99.90;;;;;;5054771;28;20144;-89
2023/01/13 01:51:18;;;;;;;21.03;5.27;;;8.30;99.90;;;;;;5038812;28;20049;-89
2023/01/13 01:53:44;;;;;;;23.43;4.87;;;8.30;99.90;;;;;;5037571;28;20041;-88
2023/01/13 01:56:10;;;;;;;24.87;5.10;;;8.30;99.90;;;;;;5038659;28;20040;-87
2023/01/13 01:58:46;;;;;;;23.50;5.30;;;8.30;99.90;;;;;;5024918;28;20052;-88
2023/01/13 02:01:13;;;;;;;21.17;5.27;;;8.30;99.90;;;;;;5028480;28;20037;-89
2023/01/13 02:03:43;;;;;;;22.80;5.70;;;8.20;99.90;;;;;;5038897;28;20055;-89
2023/01/13 02:06:10;;;;;;;26.27;5.40;;;8.20;99.90;;;;;;5038221;28;20091;-88
2023/01/13 02:08:39;;;;;;;24.40;5.47;;;8.20;99.90;;;;;;5021450;28;20107;-88
2023/01/13 02:12:28;;;;;;;24.30;5.10;;;8.20;99.90;;;;;;5022241;28;20124;-88
2023/01/13 02:13:53;;;;;;;23.47;6.23;;;8.20;99.90;;;;;;5056390;28;21495;-88
2023/01/13 02:16:23;;;;;;;24.30;5.60;;;8.20;99.90;;;;;;5038442;28;20045;-87
2023/01/13 02:19:18;;;;;;;23.60;5.60;;;8.10;99.90;;;;;;5054763;28;20106;-91
2023/01/13 02:22:14;;;;;;;29.73;5.70;;;8.20;99.90;;;;;;5021461;28;20052;-89
2023/01/13 02:25:20;;;;;;;32.40;6.20;;;8.10;99.90;;;;;;5037177;28;20538;-89
2023/01/13 02:28:13;;;;;;;28.07;6.47;;;8.10;99.90;;;;;;5030718;28;20131;-88
2023/01/13 02:34:00;;;;;;;26.73;5.23;;;8.20;99.90;;;;;;5034843;28;20057;-89
2023/01/13 02:36:49;;;;;;;22.17;6.00;;;8.20;99.90;;;;;;5057468;28;20107;-90
2023/01/13 02:39:40;;;;;;;28.77;6.23;;;8.20;99.90;;;;;;5020662;28;20048;-89
2023/01/13 02:45:03;;;;;;;24.33;5.50;;;8.10;99.90;;;;;;5061580;28;20359;-89
2023/01/13 02:47:33;;;;;;;29.83;6.27;;;8.20;99.90;;;;;;5007046;28;20073;-87
2023/01/13 02:50:08;;;;;;;27.53;6.13;;;8.20;99.90;;;;;;5029650;28;20470;-88
2023/01/13 02:52:39;;;;;;;25.23;5.77;;;8.10;99.90;;;;;;5021530;28;20124;-88
2023/01/13 02:55:12;;;;;;;25.42;6.22;;;8.10;99.90;;;;;;5032837;28;20037;-90
2023/01/13 02:57:40;;;;;;;27.13;5.93;;;8.10;99.90;;;;;;5036879;28;20483;-90
2023/01/13 03:00:10;;;;;;;32.57;5.97;;;8.10;99.90;;;;;;5037169;28;20051;-89
2023/01/13 03:02:37;;;;;;;25.47;5.97;;;8.10;99.90;;;;;;5027118;28;20041;-87
2023/01/13 03:05:04;;;;;;;28.07;5.93;;;8.00;99.90;;;;;;5037459;28;20033;-88
2023/01/13 03:07:36;;;;;;;28.93;6.13;;;8.00;99.90;;;;;;5020891;28;20134;-89
2023/01/13 03:10:30;;;;;;;33.45;6.28;;;8.00;99.90;;;;;;5021143;28;20053;-89
2023/01/13 03:13:23;;;;;;;29.10;6.03;;;8.00;99.90;;;;;;5025703;28;20036;-89
2023/01/13 03:16:02;;;;;;;24.83;6.13;;;8.00;99.90;;;;;;5024880;28;20548;-90
2023/01/13 03:18:44;;;;;;;30.30;6.77;;;8.00;99.90;;;;;;5028417;28;20785;-89
2023/01/13 03:21:51;;;;;;;28.70;6.20;;;8.00;99.90;;;;;;5022619;28;20041;-88
2023/01/13 03:24:26;;;;;;;23.27;5.93;;;8.00;99.90;;;;;;5036720;28;20037;-89
2023/01/13 03:27:14;;;;;;;27.07;5.83;;;7.90;99.90;;;;;;5054120;28;20396;-89
2023/01/13 03:30:03;;;;;;;30.80;7.47;;;7.90;99.90;;;;;;5053415;28;20098;-89
2023/01/13 03:32:45;;;;;;;30.43;6.47;;;8.00;99.90;;;;;;5037100;28;20123;-88
2023/01/13 03:35:23;;;;;;;22.75;6.30;;;8.00;99.90;;;;;;5052910;28;20076;-87
2023/01/13 03:37:59;;;;;;;27.37;6.20;;;8.00;99.90;;;;;;5036370;28;20044;-88
2023/01/13 03:40:31;;;;;;;27.33;6.23;;;7.90;99.90;;;;;;5036666;28;20439;-87
2023/01/13 03:45:56;;;;;;;27.70;6.57;;;7.90;99.90;;;;;;5036244;28;20045;-87
2023/01/13 03:48:25;;;;;;;29.20;6.07;;;7.90;99.90;;;;;;5036286;28;20099;-88
2023/01/13 03:50:53;;;;;;;25.40;6.60;;;7.90;99.90;;;;;;5002600;28;20045;-91
2023/01/13 03:53:31;;;;;;;35.67;6.73;;;7.90;99.90;;;;;;5053204;28;20049;-88
2023/01/13 03:56:06;;;;;;;29.90;6.57;;;7.90;99.90;;;;;;5033400;28;20045;-87
2023/01/13 03:58:38;;;;;;;26.87;6.17;;;7.90;99.90;;;;;;5020037;28;20048;-88
2023/01/13 04:01:19;;;;;;;29.10;6.60;;;8.00;99.90;;;;;;5021876;28;20033;-89
2023/01/13 04:03:58;;;;;;;31.83;6.40;;;8.00;99.90;;;;;;5049122;28;20120;-88
2023/01/13 04:06:54;;;;;;;26.13;5.87;;;8.00;99.90;;;;;;5019873;28;20048;-88
2023/01/13 04:09:26;;;;;;;28.60;6.00;;;8.00;99.90;;;;;;5035838;28;20057;-89
2023/01/13 04:12:06;;;;;;;25.38;5.55;;;8.10;99.90;;;;;;5045767;28;21524;-89
2023/01/13 04:14:32;;;;;;;31.23;6.77;;;8.10;99.90;;;;;;5053201;28;20055;-88
2023/01/13 04:16:58;;;;;;;30.27;6.57;;;8.10;99.90;;;;;;5034100;28;20094;-88
2023/01/13 04:19:24;;;;;;;32.83;7.13;;;8.10;99.90;;;;;;5036214;28;20484;-91
2023/01/13 04:21:49;;;;;;;31.93;6.60;;;8.10;99.90;;;;;;5032725;28;20040;-89
2023/01/13 04:24:15;;;;;;;32.87;6.70;;;8.20;99.90;;;;;;5016687;28;20068;-88
2023/01/13 04:26:41;;;;;;;26.13;6.30;;;8.10;99.90;;;;;;5036503;28;20084;-91
2023/01/13 04:29:06;;;;;;;25.60;5.93;;;8.10;99.90;;;;;;5020064;28;20408;-87
2023/01/13 04:31:32;;;;;;;24.00;5.90;;;8.10;99.90;;;;;;5030310;28;20495;-88
2023/01/13 04:33:58;;;;;;;26.43;5.97;;;8.20;99.90;;;;;;4995602;28;20041;-90
2023/01/13 04:36:26;;;;;;;28.70;6.97;;;8.10;99.90;;;;;;5051944;28;20129;-84
2023/01/13 04:38:53;;;;;;;31.93;6.10;;;8.10;99.90;;;;;;5045154;28;20047;-84
2023/01/13 04:41:19;;;;;;;27.40;6.13;;;8.10;99.90;;;;;;5051701;28;20118;-85
2023/01/13 04:43:44;;;;;;;27.10;5.93;;;8.10;99.90;;;;;;5033904;28;20049;-84
2023/01/13 04:46:10;;;;;;;26.93;7.10;;;8.10;99.90;;;;;;5037837;28;20040;-85
2023/01/13 04:48:36;;;;;;;27.17;6.00;;;8.20;99.90;;;;;;5020023;28;20047;-83
2023/01/13 04:51:02;;;;;;;25.03;6.77;;;8.20;99.90;;;;;;5031861;28;20129;-84
2023/01/13 04:53:27;;;;;;;31.17;6.80;;;8.10;99.90;;;;;;5033677;28;20091;-85
2023/01/13 04:55:53;;;;;;;32.83;7.10;;;8.10;99.90;;;;;;5045035;28;20748;-84
2023/01/13 04:58:20;;;;;;;30.20;6.83;;;8.10;99.90;;;;;;5030759;28;20060;-86
2023/01/13 05:00:46;;;;;;;23.13;6.00;;;8.10;99.90;;;;;;5021799;28;20102;-83
2023/01/13 05:03:11;;;;;;;25.33;5.93;;;8.10;99.90;;;;;;5034142;28;20028;-84
2023/01/13 05:05:37;;;;;;;34.43;8.23;;;8.10;99.90;;;;;;5030559;28;20072;-84
2023/01/13 05:08:04;;;;;;;29.83;6.53;;;8.10;99.90;;;;;;5014602;28;20041;-84
2023/01/13 05:10:29;;;;;;;36.60;6.97;;;8.10;99.90;;;;;;5046994;28;20149;-84
2023/01/13 05:18:25;;;;;;;30.57;6.30;;;8.10;99.90;;;;;;5020268;28;20455;-82
2023/01/13 05:20:50;;;;;;;25.10;6.17;;;8.10;99.90;;;;;;5031330;28;20045;-83
2023/01/13 05:26:00;;;;;;;21.43;5.17;;;8.20;99.90;;;;;;5058779;28;20049;-83
2023/01/13 05:28:31;;;;;;;23.23;5.80;;;8.20;99.90;;;;;;5028963;28;20041;-83
2023/01/13 05:30:56;;;;;;;31.03;6.63;;;8.10;99.90;;;;;;5030784;28;20041;-82
2023/01/13 05:33:22;;;;;;;28.17;5.97;;;8.10;99.90;;;;;;5044976;28;20041;-83
2023/01/13 05:35:48;;;;;;;27.07;5.67;;;8.20;99.90;;;;;;5033434;28;20072;-84
2023/01/13 05:38:15;;;;;;;25.07;6.10;;;8.10;99.90;;;;;;5033429;28;20668;-84
2023/01/13 05:43:26;;;;;;;29.10;5.40;;;8.10;99.90;;;;;;5046409;28;20053;-84
2023/01/13 05:45:56;;;;;;;25.97;5.63;;;8.10;99.90;;;;;;5034124;28;20130;-85
2023/01/13 05:48:30;;;;;;;26.00;6.10;;;8.00;99.90;;;;;;5037159;28;20045;-86
2023/01/13 05:50:56;;;;;;;26.10;5.70;;;8.00;99.90;;;;;;5035936;28;20040;-83
2023/01/13 05:53:23;;;;;;;31.00;6.10;;;8.00;99.90;;;;;;5036939;28;20502;-83
2023/01/13 05:55:50;;;;;;;23.87;5.50;;;7.90;99.90;;;;;;5020228;28;20044;-82
2023/01/13 05:58:17;;;;;;;23.97;4.93;;;7.90;99.90;;;;;;5034519;28;20077;-83
2023/01/13 06:00:43;;;;;;;24.80;5.03;;;7.90;99.90;;;;;;5053125;28;20041;-83
2023/01/13 06:03:10;;;;;;;26.43;5.03;;;7.90;99.90;;;;;;5034608;28;20048;-83
2023/01/13 06:05:36;;;;;;;22.27;4.90;;;7.90;99.90;;;;;;5055189;28;20037;-81
2023/01/13 06:08:04;;;;;;;26.00;5.07;;;7.90;99.90;;;;;;5051783;28;20090;-83
2023/01/13 06:10:30;;;;;;;23.77;5.10;;;7.90;99.90;;;;;;5035183;28;20053;-83
2023/01/13 06:12:56;;;;;;;20.50;5.40;;;7.90;99.90;;;;;;5054304;28;20044;-84
2023/01/13 06:15:23;;;;;;;20.03;4.40;;;8.00;99.90;;;;;;5036459;28;20154;-86
2023/01/13 06:17:49;;;;;;;19.97;5.30;;;8.00;99.90;;;;;;5020130;28;20245;-82
2023/01/13 06:20:15;;;;;;;21.73;4.70;;;8.00;99.90;;;;;;5049584;28;20040;-84
2023/01/13 06:22:44;;;;;;;20.77;4.87;;;8.00;99.90;;;;;;5035668;28;20148;-84
2023/01/13 06:25:33;;;;;;;20.77;4.53;;;8.10;99.90;;;;;;5048716;28;20040;-85
2023/01/13 06:27:59;;;;;;;21.70;4.73;;;8.10;99.90;;;;;;5012078;28;20040;-83
2023/01/13 06:30:32;;;;;;;14.83;4.67;;;8.10;99.90;;;;;;5051031;28;20040;-80
2023/01/13 06:33:02;;;;;;;18.17;4.50;;;8.20;99.90;;;;;;5034495;28;20370;-82
2023/01/13 06:35:33;;;;;;;16.83;5.20;;;8.20;99.90;;;;;;5054056;28;20033;-84
2023/01/13 06:38:02;;;;;;;20.43;4.97;;;8.20;99.90;;;;;;5036066;28;20048;-85
2023/01/13 06:40:28;;;;;;;21.03;4.73;;;8.20;99.90;;;;;;5030969;28;20480;-82
2023/01/13 06:43:14;;;;;;;24.83;5.23;;;8.20;99.90;;;;;;5037153;28;20033;-86
2023/01/13 06:45:50;;;;;;;17.33;5.33;;;8.20;99.90;;;;;;5029313;28;20049;-88
2023/01/13 06:48:19;;;;;;;16.63;5.30;;;8.20;99.90;;;;;;5036051;28;20041;-90
2023/01/13 06:50:45;;;;;;;24.57;6.07;;;8.20;99.90;;;;;;5054151;28;20045;-90
2023/01/13 06:53:11;;;;;;;16.27;5.20;;;8.20;99.90;;;;;;5052437;28;20040;-90
2023/01/13 06:55:37;;;;;;;14.80;4.40;;;8.20;99.90;;;;;;5037301;28;20040;-88
2023/01/13 06:58:02;;;;;;;16.77;5.20;;;8.20;99.90;;;;;;5020674;28;20037;-88
2023/01/13 07:00:28;;;;;;;16.70;5.30;;;8.20;99.90;;;;;;5037490;28;20044;-88
2023/01/13 07:03:13;;;;;;;20.70;5.30;;;8.20;99.90;;;;;;5022662;28;20821;-88
2023/01/13 07:05:40;;;;;;;15.20;4.60;;;8.20;99.90;;;;;;5041803;28;20237;-87
2023/01/13 07:08:07;;;;;;;12.73;4.03;;;8.10;99.90;;;;;;5016419;28;20045;-87
2023/01/13 07:10:33;;;;;;;15.40;3.97;;;8.10;99.90;;;;;;5010164;28;20056;-85
2023/01/13 07:16:00;;;;;;;16.57;3.73;;;8.10;99.90;;;;;;4993614;28;20391;-88
2023/01/13 07:18:30;;;;;;;16.00;3.70;;;8.10;99.90;;;;;;5020368;28;20104;-87
2023/01/13 07:20:58;;;;;;;14.00;3.93;;;8.10;99.90;;;;;;5036446;28;20037;-89
2023/01/13 07:23:26;;;;;;;14.90;3.77;;;8.10;99.90;;;;;;5022476;28;20385;-89
2023/01/13 07:25:57;;;;;;;15.67;3.40;;;8.10;99.90;;;;;;5036907;28;20436;-87
2023/01/13 07:28:24;;;;;;;10.43;3.78;;;8.10;99.90;;;;;;5019060;28;20116;-88
2023/01/13 07:30:51;;;;;;;16.73;3.40;;;8.20;99.90;;;;;;5022391;28;20048;-87
2023/01/13 07:33:17;;;;;;;14.57;3.60;;;8.10;99.90;;;;;;5052600;28;20041;-89
2023/01/13 07:35:44;;;;;;;18.93;4.27;;;8.10;99.90;;;;;;5048061;28;20038;-88
2023/01/13 07:38:10;;;;;;;19.00;3.97;;;8.10;99.90;;;;;;5035801;28;20041;-86
2023/01/13 07:40:36;;;;;;;16.43;3.60;;;8.10;99.90;;;;;;5047056;28;20047;-89
2023/01/13 07:45:47;;;;;;;12.87;3.50;;;8.00;99.90;;;;;;5039380;28;20506;-88
2023/01/13 07:48:12;;;;;;;18.23;3.83;;;7.90;99.90;;;;;;5052628;28;20037;-88
2023/01/13 07:50:38;;;;;;;19.63;4.70;;;7.90;99.90;;;;;;5028985;28;20087;-89
2023/01/13 07:53:04;;;;;;;17.33;3.80;;;7.80;99.90;;;;;;5034957;28;20446;-90
2023/01/13 07:55:30;;;;;;;15.33;3.87;;;7.80;99.90;;;;;;4987933;28;20036;-88
2023/01/13 07:57:55;;;;;;;19.77;4.23;;;7.70;99.90;;;;;;5027640;28;20595;-89
2023/01/13 08:00:22;;;;;;;19.10;4.00;;;7.70;99.90;;;;;;5035933;28;20128;-88
2023/01/13 08:02:48;;;;;;;16.83;3.47;;;7.60;99.90;;;;;;5036061;28;20381;-88
2023/01/13 08:05:14;;;;;;;15.03;3.43;;;7.60;99.90;;;;;;5024036;28;20099;-89
2023/01/13 08:07:39;;;;;;;20.60;4.60;;;7.60;99.90;;;;;;5016856;28;20037;-87
2023/01/13 08:10:06;;;;;;;21.07;4.13;;;7.60;99.90;;;;;;5015786;28;20496;-89
2023/01/13 08:15:16;;;;;;;20.00;3.93;;;7.50;99.90;;;;;;5016264;28;20128;-87
2023/01/13 08:17:42;;;;;;;17.70;4.20;;;7.50;99.90;;;;;;5022225;28;20179;-88
2023/01/13 08:20:08;;;;;;;18.47;3.97;;;7.50;99.90;;;;;;5024285;28;20053;-89
2023/01/13 08:22:34;;;;;;;18.63;3.90;;;7.50;99.90;;;;;;5030141;28;20045;-87
2023/01/13 08:24:59;;;;;;;17.03;4.50;;;7.50;99.90;;;;;;5020885;28;20044;-89
2023/01/13 08:27:25;;;;;;;16.27;4.33;;;7.50;99.90;;;;;;5024128;28;20045;-90
2023/01/13 08:29:51;;;;;;;21.03;4.27;;;7.50;99.90;;;;;;5023901;28;20502;-87
2023/01/13 08:32:17;;;;;;;21.43;4.20;;;7.50;99.90;;;;;;5027734;28;20385;-88
2023/01/13 08:34:42;;;;;;;17.50;3.70;;;7.50;99.90;;;;;;5027236;28;20036;-88
2023/01/13 08:37:08;;;;;;;21.93;3.77;;;7.50;99.90;;;;;;5023703;28;20047;-86
2023/01/13 08:39:35;;;;;;;19.00;4.23;;;7.50;99.90;;;;;;5023918;28;20122;-88
2023/01/13 08:42:02;;;;;;;17.57;4.43;;;7.50;99.90;;;;;;5013526;28;20033;-88
2023/01/13 08:44:30;;;;;;;17.50;4.03;;;7.50;99.90;;;;;;5017944;28;20030;-89
2023/01/13 08:46:57;;;;;;;15.80;4.20;;;7.50;99.90;;;;;;5016395;28;20416;-89
2023/01/13 08:49:24;;;;;;;17.13;4.20;;;7.50;99.90;;;;;;5018777;28;20091;-89
2023/01/13 08:51:51;;;;;;;21.93;5.10;;;7.50;99.90;;;;;;5029022;28;20072;-88
2023/01/13 08:54:18;;;;;;;20.90;4.30;;;7.60;99.90;;;;;;5015412;28;20045;-86
2023/01/13 08:56:44;;;;;;;17.33;4.40;;;7.60;99.90;;;;;;4997675;28;20040;-89
2023/01/13 08:59:15;;;;;;;17.67;4.20;;;7.60;99.90;;;;;;5014555;28;20551;-87
2023/01/13 09:01:41;;;;;;;17.63;4.67;;;7.60;99.90;;;;;;5023268;28;20515;-88
2023/01/13 09:04:16;;;;;;;25.57;4.80;;;7.60;99.90;;;;;;5016712;28;20033;-88
2023/01/13 09:06:42;;;;;;;28.87;5.50;;;7.60;99.90;;;;;;5041920;28;20458;-88
2023/01/13 09:09:08;;;;;;;22.60;4.43;;;7.60;99.90;;;;;;5036380;28;20037;-88
2023/01/13 09:14:26;;;;;;;20.50;4.90;;;7.60;99.90;;;;;;5035590;28;20108;-89
2023/01/13 09:16:52;;;;;;;23.13;4.57;;;7.60;99.90;;;;;;5018811;28;20459;-83
2023/01/13 09:19:17;;;;;;;22.37;4.30;;;7.70;99.90;;;;;;5049180;28;20815;-84
2023/01/13 09:21:43;;;;;;;21.13;4.50;;;7.70;99.90;;;;;;5033973;28;20041;-85
2023/01/13 09:24:09;;;;;;;18.80;4.70;;;7.70;99.90;;;;;;5053819;28;20060;-86
2023/01/13 09:26:36;;;;;;;22.13;5.30;;;7.70;99.90;;;;;;5011876;28;20037;-84
2023/01/13 09:29:02;;;;;;;19.67;4.67;;;7.70;99.90;;;;;;5023703;28;20439;-85
2023/01/13 09:31:28;;;;;;;14.77;4.00;;;7.70;99.90;;;;;;5019318;28;20033;-85
2023/01/13 09:36:38;;;;;;;16.90;4.40;;;7.80;99.90;;;;;;5034555;28;20044;-85
2023/01/13 09:39:04;;;;;;;21.93;5.13;;;7.70;99.90;;;;;;5021253;28;20562;-83
2023/01/13 09:44:57;;;;;;;22.33;4.80;;;7.70;99.90;;;;;;5037774;28;20071;-85
2023/01/13 09:47:55;;;;;;;19.50;4.73;;;7.70;99.90;;;;;;5048598;28;20068;-83
2023/01/13 09:50:33;;;;;;;21.63;4.63;;;7.70;99.90;;;;;;5017404;28;20049;-83
2023/01/13 09:52:59;;;;;;;18.03;4.33;;;7.70;99.90;;;;;;5034543;28;20062;-83
2023/01/13 09:55:33;;;;;;;22.60;4.43;;;7.70;99.90;;;;;;5051946;28;20500;-84
2023/01/13 09:58:01;;;;;;;18.73;4.63;;;7.70;99.90;;;;;;5018805;28;20049;-84
2023/01/13 10:00:56;;;;;;;25.03;4.40;;;7.70;99.90;;;;;;5033717;28;20044;-85
2023/01/13 10:03:28;;;;;;;24.97;5.17;;;7.70;99.90;;;;;;5034119;28;20490;-85
2023/01/13 10:05:56;;;;;;;17.70;5.18;;;7.70;99.90;;;;;;5022471;28;20037;-86
2023/01/13 10:08:32;;;;;;;21.23;4.50;;;7.70;99.90;;;;;;5036869;28;20076;-84
2023/01/13 10:13:55;;;;;;;25.42;4.80;;;7.70;99.90;;;;;;5044855;28;20049;-85
2023/01/13 10:16:41;;;;;;;24.90;5.23;;;7.70;99.90;;;;;;5034984;28;20171;-84
2023/01/13 10:19:21;;;;;;;23.90;5.27;;;7.80;99.90;;;;;;5031115;28;20082;-85
2023/01/13 10:22:14;;;;;;;23.23;5.17;;;7.80;99.90;;;;;;5042771;28;20069;-84
2023/01/13 10:25:10;;;;;;;21.73;4.50;;;7.80;99.90;;;;;;5011498;28;20049;-84
2023/01/13 10:27:38;;;;;;;23.97;4.90;;;7.80;99.90;;;;;;5017160;28;20056;-85
2023/01/13 10:30:30;;;;;;;27.53;5.30;;;7.80;99.90;;;;;;5054521;28;20040;-85
2023/01/13 10:33:01;;;;;;;22.08;5.03;;;7.80;99.90;;;;;;5019741;28;20040;-84
2023/01/13 10:35:50;;;;;;;23.10;5.10;;;7.70;99.90;;;;;;5035346;28;20037;-86
2023/01/13 10:38:21;;;;;;;17.30;4.10;;;7.70;99.90;;;;;;5036574;28;20368;-84
2023/01/13 10:40:55;;;;;;;27.02;5.40;;;7.70;99.90;;;;;;5020125;28;20116;-85
2023/01/13 10:43:21;;;;;;;21.80;4.73;;;7.70;99.90;;;;;;5023731;28;20044;-84
2023/01/13 10:46:03;;;;;;;22.50;5.17;;;7.70;99.90;;;;;;5055190;28;20064;-84
2023/01/13 10:48:54;;;;;;;25.27;5.63;;;7.70;99.90;;;;;;5055261;28;20068;-84
2023/01/13 10:51:38;;;;;;;23.33;5.25;;;7.70;99.90;;;;;;5022947;28;20132;-85
2023/01/13 10:54:10;;;;;;;27.20;5.40;;;7.70;99.90;;;;;;5034911;28;20518;-85
2023/01/13 10:56:37;;;;;;;27.15;5.70;;;7.80;99.90;;;;;;5043389;28;20044;-83
2023/01/13 10:59:18;;;;;;;23.50;5.37;;;7.80;99.90;;;;;;5023048;28;20453;-81
2023/01/13 11:02:00;;;;;;;19.37;4.87;;;7.80;99.90;;;;;;5048224;28;20076;-86
2023/01/13 11:04:31;;;;;;;;;;;7.80;99.90;;;;;;5024294;28;20036;-83
2023/01/13 11:06:58;;;;;;;24.53;4.60;;;7.80;99.90;;;;;;5028661;28;19916;-84
2023/01/13 11:09:25;;;;;;;24.93;4.63;;;7.80;99.90;;;;;;5030267;28;20064;-82
2023/01/13 11:11:55;;;;;;;24.30;4.90;;;7.80;99.90;;;;;;5003930;28;20038;-83
2023/01/13 11:14:41;;;;;;;22.00;5.70;;;7.80;99.90;;;;;;5022963;28;20091;-85
2023/01/13 11:17:46;;;;;;;24.83;5.33;;;7.80;99.90;;;;;;5017836;28;20108;-86
2023/01/13 11:20:22;;;;;;;21.07;4.80;;;7.80;99.90;;;;;;5005218;28;20398;-84
2023/01/13 11:22:55;;;;;;;20.97;4.43;;;7.80;99.90;;;;;;5020712;28;20045;-85
2023/01/13 11:25:42;;;;;;;27.77;5.30;;;7.80;99.90;;;;;;5019413;28;20038;-83
2023/01/13 11:28:34;;;;;;;18.10;5.07;;;7.80;99.90;;;;;;5016272;28;20114;-84
2023/01/13 11:31:07;;;;;;;;;;;7.80;99.90;;;;;;5019425;28;20045;-84
2023/01/13 11:33:45;;;;;;;;;;;7.80;99.90;;;;;;5034233;28;19932;-84
2023/01/13 11:36:24;;;;;;;30.63;4.60;;;7.80;99.90;;;;;;5024463;28;19969;-85
2023/01/13 11:38:57;;;;;;;22.90;4.73;;;7.80;99.90;;;;;;5034676;28;20531;-82
2023/01/13 11:42:19;;;;;;;22.97;5.00;;;7.90;99.90;;;;;;5021247;28;20452;-84
2023/01/13 11:44:57;;;;;;;23.93;5.47;;;7.90;99.90;;;;;;5031719;28;20887;-84
2023/01/13 11:47:25;;;;;;;26.80;5.47;;;7.90;99.90;;;;;;5032291;28;20103;-83
2023/01/13 11:49:51;;;;;;;23.33;4.80;;;7.90;99.90;;;;;;5008581;28;20037;-83
2023/01/13 11:52:39;;;;;;;25.83;5.33;;;7.90;99.90;;;;;;5008138;28;20049;-83
2023/01/13 11:55:08;;;;;;;23.63;5.13;;;8.00;99.90;;;;;;5022726;28;20049;-83
2023/01/13 11:57:57;;;;;;;17.70;4.23;;;8.00;99.90;;;;;;5010787;28;20528;-86
2023/01/13 12:00:39;;;;;;;20.47;4.10;;;8.00;99.90;;;;;;5001478;28;20520;-84
2023/01/13 12:03:11;;;;;;;;;;;8.10;99.90;;;;;;5011643;28;20443;-86
2023/01/13 12:05:46;;;;;;;19.70;3.53;;;8.10;99.90;;;;;;5028164;28;19917;-84
2023/01/13 12:08:40;;;;;;;18.60;3.80;;;8.10;99.90;;;;;;5011593;28;20076;-86
2023/01/13 12:11:21;;;;;;;19.23;4.50;;;8.20;99.90;;;;;;5031634;28;20045;-85
2023/01/13 12:14:11;;;;;;;23.20;4.60;;;8.20;99.90;;;;;;5034320;28;20116;-86
2023/01/13 12:16:46;;;;;;;19.17;4.20;;;8.20;99.90;;;;;;5034427;28;20079;-84
2023/01/13 12:19:31;;;;;;;19.30;4.03;;;8.20;99.90;;;;;;5016243;28;20065;-84
2023/01/13 12:22:01;;;;;;;22.97;4.83;;;8.30;99.90;;;;;;5050647;28;20052;-83
2023/01/13 12:24:38;;;;;;;16.00;4.03;;;8.30;99.90;;;;;;5050212;28;20049;-85
2023/01/13 12:27:17;;;;;;;19.47;4.70;;;8.30;99.90;;;;;;5014011;28;20044;-85
2023/01/13 12:29:44;;;;;;;24.60;4.50;;;8.30;99.90;;;;;;5019239;28;20059;-83
2023/01/13 12:32:23;;;;;;;18.67;4.13;;;8.30;99.90;;;;;;5039547;28;20124;-84
2023/01/13 12:35:11;;;;;;;13.87;3.40;;;8.30;99.90;;;;;;5049728;28;20063;-84
2023/01/13 12:37:44;;;;;;;19.50;4.20;;;8.30;99.90;;;;;;5035536;28;20049;-83
2023/01/13 12:40:24;;;;;;;18.53;3.70;;;8.40;99.90;;;;;;5018077;28;20052;-85
2023/01/13 12:46:20;;;;;;;18.27;4.33;;;8.40;99.90;;;;;;5036919;28;20174;-85
2023/01/13 12:49:00;;;;;;;18.87;3.80;;;8.40;99.90;;;;;;5010780;28;20092;-84
2023/01/13 12:51:32;;;;;;;11.63;3.13;;;8.50;99.90;;;;;;5035534;28;20540;-84
2023/01/13 12:54:02;;;;;;;16.38;3.92;;;8.50;99.90;;;;;;5024176;28;20033;-86
2023/01/13 12:56:43;;;;;;;10.83;3.43;;;8.50;99.90;;;;;;5033128;28;20832;-86
2023/01/13 12:59:18;;;;;;;15.35;3.60;;;8.50;99.90;;;;;;5052083;28;20045;-85
2023/01/13 13:01:49;;;;;;;15.00;3.40;;;8.40;99.90;;;;;;5033900;28;20052;-86
2023/01/13 13:04:39;;;;;;;11.43;3.10;;;8.40;99.90;;;;;;5029375;28;20496;-86
2023/01/13 13:07:18;;;;;;;14.77;3.87;;;8.40;99.90;;;;;;5011542;28;20045;-87
2023/01/13 13:10:13;;;;;;;11.53;3.13;;;8.50;99.90;;;;;;5033423;28;20548;-86
2023/01/13 13:15:35;;;;;;;18.00;3.53;;;8.40;99.90;;;;;;5021215;28;20041;-86
2023/01/13 13:18:07;;;;;;;14.90;3.50;;;8.40;99.90;;;;;;5017306;28;20072;-86
2023/01/13 13:20:54;;;;;;;18.93;3.50;;;8.40;99.90;;;;;;5022190;28;20036;-84
2023/01/13 13:23:36;;;;;;;12.83;3.20;;;8.40;99.90;;;;;;5023822;28;20060;-84
2023/01/13 13:26:30;;;;;;;14.02;3.85;;;8.50;99.90;;;;;;5033612;28;20041;-83
2023/01/13 13:29:23;;;;;;;11.40;2.70;;;8.40;99.90;;;;;;5023586;28;20042;-86
2023/01/13 13:31:49;;;;;;;12.70;3.10;;;8.50;99.90;;;;;;5016165;28;20539;-87
2023/01/13 13:34:45;;;;;;;15.07;3.23;;;8.50;99.90;;;;;;5044828;28;20041;-85
2023/01/13 13:37:29;;;;;;;11.47;2.67;;;8.50;99.90;;;;;;5018950;28;20708;-85
2023/01/13 13:48:20;;;;;;;9.30;2.83;;;8.60;99.90;;;;;;5036308;28;20040;-87
2023/01/13 13:50:59;;;;;;;12.63;3.13;;;8.60;99.90;;;;;;5025192;28;20072;-87
2023/01/13 13:53:34;;;;;;;10.63;3.23;;;8.60;99.90;;;;;;5032067;28;20071;-85
2023/01/13 13:56:13;;;;;;;11.33;2.90;;;8.60;99.90;;;;;;5033013;28;20571;-86
2023/01/13 13:58:39;;;;;;;12.87;2.77;;;8.60;99.90;;;;;;5014979;28;20052;-86
2023/01/13 14:01:05;;;;;;;12.73;3.20;;;8.60;99.90;;;;;;5016753;28;20064;-85
2023/01/13 14:03:34;;;;;;;14.37;3.03;;;8.60;99.90;;;;;;5033373;28;20040;-84
2023/01/13 14:06:03;;;;;;;12.53;2.60;;;8.70;99.90;;;;;;5020148;28;20131;-86
2023/01/13 14:08:33;;;;;;;13.40;2.87;;;8.70;99.90;;;;;;5013093;28;20124;-86
2023/01/13 14:10:59;;;;;;;10.67;2.63;;;8.70;99.90;;;;;;5037722;28;20139;-85